Time;durP1;ratioP1;P1;durP2;ratioP2;P2;SDS_P1;SDS_P2;PMS_P1;PMS_P2;Temp;Humidity;BMP_temperature;BMP_pressure;BME280_temperature;BME280_humidity;BME280_pressure;Samples;Min_cycle;Max_cycle;Signal;HPM_P1;HPM_P2
2022/11/22 00:00:18;;;;;;;11.00;4.05;;;;;;;;;;7392352;19;19991;-73
2022/11/22 00:02:43;;;;;;;10.23;4.15;;;;;;;;;;7391628;19;20002;-73
2022/11/22 00:05:08;;;;;;;10.00;3.67;;;;;;;;;;7391293;19;20330;-73
2022/11/22 00:07:34;;;;;;;11.95;4.45;;;;;;;;;;7389046;19;20010;-73
2022/11/22 00:09:59;;;;;;;17.40;4.38;;;;;;;;;;7389347;19;19999;-73
2022/11/22 00:12:24;;;;;;;11.73;4.68;;;;;;;;;;7390495;19;19999;-73
2022/11/22 00:14:50;;;;;;;15.35;4.53;;;;;;;;;;7390475;19;20003;-73
2022/11/22 00:17:15;;;;;;;10.35;4.55;;;;;;;;;;7389197;19;20002;-73
2022/11/22 00:19:41;;;;;;;12.82;4.50;;;;;;;;;;7389477;19;19995;-73
2022/11/22 00:22:06;;;;;;;10.73;4.45;;;;;;;;;;7394425;19;20045;-73
2022/11/22 00:24:32;;;;;;;11.43;4.85;;;;;;;;;;7390303;19;19994;-73
2022/11/22 00:26:57;;;;;;;10.90;4.50;;;;;;;;;;7389193;19;20546;-73
2022/11/22 00:29:22;;;;;;;13.60;4.68;;;;;;;;;;7389280;19;20350;-73
2022/11/22 00:31:48;;;;;;;12.55;4.63;;;;;;;;;;7390202;19;19995;-73
2022/11/22 00:34:13;;;;;;;14.13;5.38;;;;;;;;;;7389961;19;19995;-73
2022/11/22 00:36:38;;;;;;;14.13;5.40;;;;;;;;;;7386722;19;19998;-73
2022/11/22 00:39:04;;;;;;;15.38;4.90;;;;;;;;;;7390260;19;20036;-73
2022/11/22 00:41:29;;;;;;;11.23;4.85;;;;;;;;;;7390077;19;20080;-73
2022/11/22 00:43:54;;;;;;;18.25;6.15;;;;;;;;;;7390211;19;20078;-73
2022/11/22 00:46:20;;;;;;;11.57;5.05;;;;;;;;;;7389634;19;20670;-73
2022/11/22 00:48:45;;;;;;;10.15;5.10;;;;;;;;;;7388324;19;20554;-73
2022/11/22 00:51:11;;;;;;;12.50;4.70;;;;;;;;;;7387974;19;20015;-73
2022/11/22 00:53:36;;;;;;;10.25;4.72;;;;;;;;;;7388312;19;20412;-73
2022/11/22 00:56:02;;;;;;;11.00;4.68;;;;;;;;;;7389921;19;20456;-72
2022/11/22 00:58:27;;;;;;;10.75;5.15;;;;;;;;;;7389639;19;20109;-72
2022/11/22 01:00:52;;;;;;;9.27;4.63;;;;;;;;;;7389397;19;20006;-72
2022/11/22 01:03:18;;;;;;;13.57;5.00;;;;;;;;;;7389108;19;19999;-73
2022/11/22 01:05:43;;;;;;;13.10;5.30;;;;;;;;;;7389328;19;19994;-72
2022/11/22 01:08:08;;;;;;;10.80;4.65;;;;;;;;;;7386749;19;19990;-73
2022/11/22 01:10:35;;;;;;;11.95;5.47;;;;;;;;;;7386000;19;19998;-72
2022/11/22 01:13:01;;;;;;;10.68;4.80;;;;;;;;;;7388646;19;20062;-72
2022/11/22 01:15:27;;;;;;;10.85;5.70;;;;;;;;;;7388917;19;20006;-72
2022/11/22 01:17:52;;;;;;;12.77;5.22;;;;;;;;;;7386724;19;20014;-72
2022/11/22 01:20:18;;;;;;;11.63;5.13;;;;;;;;;;7387221;19;20037;-72
2022/11/22 01:22:43;;;;;;;12.70;4.97;;;;;;;;;;7386565;19;19998;-72
2022/11/22 01:25:08;;;;;;;10.73;5.43;;;;;;;;;;7388852;19;19994;-72
2022/11/22 01:27:34;;;;;;;11.40;5.45;;;;;;;;;;7386669;19;20603;-72
2022/11/22 01:29:59;;;;;;;13.60;6.30;;;;;;;;;;7387449;19;20019;-72
2022/11/22 01:32:24;;;;;;;13.10;5.55;;;;;;;;;;7388455;19;20014;-72
2022/11/22 01:34:50;;;;;;;10.70;5.20;;;;;;;;;;7387925;19;20737;-72
2022/11/22 01:37:15;;;;;;;16.25;5.53;;;;;;;;;;7386400;19;20062;-72
2022/11/22 01:39:40;;;;;;;13.65;5.38;;;;;;;;;;7392416;19;20002;-72
2022/11/22 01:42:06;;;;;;;13.38;5.63;;;;;;;;;;7387615;19;20054;-72
2022/11/22 01:44:32;;;;;;;12.43;6.10;;;;;;;;;;7385033;19;20070;-72
2022/11/22 01:47:10;;;;;;;16.80;5.15;;;;;;;;;;7385147;19;20035;-72
2022/11/22 01:49:41;;;;;;;10.00;5.15;;;;;;;;;;7384467;19;20498;-72
2022/11/22 01:52:12;;;;;;;12.48;5.20;;;;;;;;;;7383669;19;20006;-72
2022/11/22 01:54:39;;;;;;;;;;;;;;;;;;7387419;19;20070;-73
2022/11/22 01:57:09;;;;;;;11.63;5.15;;;;;;;;;;7385570;19;19914;-72
2022/11/22 01:59:37;;;;;;;10.57;5.38;;;;;;;;;;7389429;19;20014;-73
2022/11/22 02:02:04;;;;;;;13.02;5.72;;;;;;;;;;7387128;19;20074;-73
2022/11/22 02:04:31;;;;;;;11.27;5.57;;;;;;;;;;7385903;19;20431;-73
2022/11/22 02:07:00;;;;;;;12.02;5.75;;;;;;;;;;7384810;19;19998;-73
2022/11/22 02:09:26;;;;;;;11.85;5.45;;;;;;;;;;7384194;19;20035;-73
2022/11/22 02:11:56;;;;;;;11.18;5.60;;;;;;;;;;7385788;19;20012;-73
2022/11/22 02:14:25;;;;;;;9.90;5.30;;;;;;;;;;7387226;19;20017;-73
2022/11/22 02:16:50;;;;;;;13.20;6.18;;;;;;;;;;7385249;19;20306;-73
2022/11/22 02:19:29;;;;;;;12.25;5.78;;;;;;;;;;7386201;19;20062;-73
2022/11/22 02:22:12;;;;;;;11.68;5.82;;;;;;;;;;7386039;19;19998;-73
2022/11/22 02:24:44;;;;;;;11.50;5.07;;;;;;;;;;7386246;19;20400;-73
2022/11/22 02:27:09;;;;;;;13.13;6.20;;;;;;;;;;7384925;19;20019;-73
2022/11/22 02:29:35;;;;;;;12.30;5.60;;;;;;;;;;7385446;19;19995;-73
2022/11/22 02:32:00;;;;;;;9.77;5.47;;;;;;;;;;7388382;19;20559;-73
2022/11/22 02:34:26;;;;;;;10.10;5.90;;;;;;;;;;7386467;19;20002;-73
2022/11/22 02:36:53;;;;;;;12.57;5.95;;;;;;;;;;7384676;19;20012;-73
2022/11/22 02:39:22;;;;;;;10.57;6.25;;;;;;;;;;7386592;19;20337;-73
2022/11/22 02:41:48;;;;;;;14.35;6.38;;;;;;;;;;7385708;19;19999;-73
2022/11/22 02:44:15;;;;;;;14.50;6.05;;;;;;;;;;7385827;19;20005;-73
2022/11/22 02:46:52;;;;;;;13.85;6.22;;;;;;;;;;7384672;19;20006;-73
2022/11/22 02:49:20;;;;;;;11.90;5.93;;;;;;;;;;7385172;19;20018;-73
2022/11/22 02:51:45;;;;;;;12.27;6.20;;;;;;;;;;7385774;19;20013;-73
2022/11/22 02:54:11;;;;;;;17.48;7.07;;;;;;;;;;7385556;19;20050;-73
2022/11/22 02:56:36;;;;;;;13.38;6.45;;;;;;;;;;7384434;19;20019;-73
2022/11/22 02:59:02;;;;;;;10.75;6.60;;;;;;;;;;7387598;19;20011;-72
2022/11/22 03:01:28;;;;;;;11.13;6.45;;;;;;;;;;7391217;19;20464;-72
2022/11/22 03:03:53;;;;;;;11.05;6.18;;;;;;;;;;7392905;19;20031;-72
2022/11/22 03:06:19;;;;;;;11.88;6.45;;;;;;;;;;7392422;19;20363;-72
2022/11/22 03:08:44;;;;;;;11.52;6.10;;;;;;;;;;7393300;19;20028;-72
2022/11/22 03:11:09;;;;;;;11.70;6.80;;;;;;;;;;7390395;19;20002;-72
2022/11/22 03:13:34;;;;;;;12.93;6.18;;;;;;;;;;7392884;19;19998;-73
2022/11/22 03:16:00;;;;;;;10.02;5.85;;;;;;;;;;7392494;19;20696;-72
2022/11/22 03:18:25;;;;;;;15.93;6.90;;;;;;;;;;7389494;19;20003;-72
2022/11/22 03:20:51;;;;;;;14.02;6.90;;;;;;;;;;7391966;19;20002;-72
2022/11/22 03:23:16;;;;;;;11.75;7.05;;;;;;;;;;7392326;19;20027;-73
2022/11/22 03:25:41;;;;;;;17.30;6.90;;;;;;;;;;7392600;19;20018;-73
2022/11/22 03:28:06;;;;;;;18.35;7.30;;;;;;;;;;7389349;19;20003;-73
2022/11/22 03:30:32;;;;;;;13.80;7.07;;;;;;;;;;7389787;19;20118;-72
2022/11/22 03:32:57;;;;;;;13.52;7.45;;;;;;;;;;7391601;19;20005;-72
2022/11/22 03:35:23;;;;;;;14.82;7.60;;;;;;;;;;7391583;19;19995;-73
2022/11/22 03:37:48;;;;;;;13.20;7.28;;;;;;;;;;7389094;19;20110;-72
2022/11/22 03:40:13;;;;;;;15.80;7.63;;;;;;;;;;7390446;19;19991;-72
2022/11/22 03:42:39;;;;;;;15.88;8.02;;;;;;;;;;7395642;19;20034;-73
2022/11/22 03:45:05;;;;;;;14.77;7.18;;;;;;;;;;7392468;19;19990;-73
2022/11/22 03:47:31;;;;;;;11.60;7.25;;;;;;;;;;7389367;19;20021;-73
2022/11/22 03:49:56;;;;;;;13.68;7.53;;;;;;;;;;7390487;19;20028;-72
2022/11/22 03:52:21;;;;;;;17.90;8.23;;;;;;;;;;7390986;19;20014;-73
2022/11/22 03:54:47;;;;;;;16.85;7.25;;;;;;;;;;7391317;19;20334;-73
2022/11/22 03:57:12;;;;;;;17.27;7.53;;;;;;;;;;7389349;19;20174;-73
2022/11/22 03:59:37;;;;;;;16.90;7.88;;;;;;;;;;7391745;19;20418;-73
2022/11/22 04:02:03;;;;;;;13.95;7.20;;;;;;;;;;7390569;19;20102;-73
2022/11/22 04:04:28;;;;;;;15.32;7.82;;;;;;;;;;7390992;19;19995;-73
2022/11/22 04:06:53;;;;;;;15.35;7.70;;;;;;;;;;7389308;19;20043;-73
2022/11/22 04:09:18;;;;;;;13.95;7.95;;;;;;;;;;7389912;19;19995;-73
2022/11/22 04:11:44;;;;;;;19.45;8.32;;;;;;;;;;7390481;19;20034;-73
2022/11/22 04:16:54;;;;;;;14.05;7.88;;;;;;;;;;7389084;19;20097;-73
2022/11/22 04:19:19;;;;;;;15.75;8.25;;;;;;;;;;7390034;19;20365;-73
2022/11/22 04:21:45;;;;;;;16.70;8.63;;;;;;;;;;7390119;19;19997;-73
2022/11/22 04:26:56;;;;;;;15.23;8.25;;;;;;;;;;7388426;19;20100;-73
2022/11/22 04:29:22;;;;;;;21.30;8.73;;;;;;;;;;7392870;19;20330;-73
2022/11/22 04:34:34;;;;;;;19.13;8.38;;;;;;;;;;7389732;19;20370;-73
2022/11/22 04:37:00;;;;;;;16.58;8.32;;;;;;;;;;7388147;19;20460;-73
2022/11/22 04:39:25;;;;;;;15.50;8.50;;;;;;;;;;7389209;19;20005;-73
2022/11/22 04:44:39;;;;;;;19.60;8.68;;;;;;;;;;7389578;19;19991;-73
2022/11/22 04:44:40;;;;;;;19.45;8.82;;;;;;;;;;7389127;19;20009;-73
2022/11/22 04:47:08;;;;;;;16.30;8.80;;;;;;;;;;7388170;19;20019;-73
2022/11/22 04:49:33;;;;;;;16.83;8.27;;;;;;;;;;7388906;19;20318;-73
2022/11/22 04:54:43;;;;;;;18.92;7.82;;;;;;;;;;7389122;19;20022;-73
2022/11/22 04:57:08;;;;;;;19.45;8.45;;;;;;;;;;7387363;19;20002;-73
2022/11/22 04:59:33;;;;;;;16.27;7.85;;;;;;;;;;7388785;19;20005;-73
2022/11/22 05:01:58;;;;;;;17.65;7.80;;;;;;;;;;7387572;19;19997;-73
2022/11/22 05:04:24;;;;;;;17.10;7.38;;;;;;;;;;7388693;19;19991;-73
2022/11/22 05:06:50;;;;;;;15.00;7.65;;;;;;;;;;7387479;19;20281;-73
2022/11/22 05:09:15;;;;;;;20.98;7.70;;;;;;;;;;7388419;19;20006;-73
2022/11/22 05:11:41;;;;;;;15.05;7.10;;;;;;;;;;7388442;19;20559;-73
2022/11/22 05:14:07;;;;;;;13.23;6.78;;;;;;;;;;7388458;19;19990;-73
2022/11/22 05:16:33;;;;;;;14.57;7.40;;;;;;;;;;7387796;19;20074;-73
2022/11/22 05:18:58;;;;;;;13.43;6.25;;;;;;;;;;7386187;19;20002;-73
2022/11/22 05:21:28;;;;;;;14.13;5.75;;;;;;;;;;7388548;19;20042;-73
2022/11/22 05:23:53;;;;;;;14.63;5.40;;;;;;;;;;7387076;19;20006;-73
2022/11/22 05:26:28;;;;;;;17.33;5.25;;;;;;;;;;7387671;19;19995;-73
2022/11/22 05:28:53;;;;;;;16.15;4.40;;;;;;;;;;7388133;19;19998;-73
2022/11/22 05:31:26;;;;;;;12.23;4.18;;;;;;;;;;7386123;19;20140;-73
2022/11/22 05:33:54;;;;;;;16.83;3.63;;;;;;;;;;7388231;19;19995;-74
2022/11/22 05:36:21;;;;;;;10.05;3.40;;;;;;;;;;7387391;19;20078;-74
2022/11/22 05:38:46;;;;;;;9.90;2.97;;;;;;;;;;7387913;19;20002;-73
2022/11/22 05:41:13;;;;;;;18.35;3.78;;;;;;;;;;7387539;19;19998;-73
2022/11/22 05:43:40;;;;;;;21.55;3.13;;;;;;;;;;7390157;19;20342;-73
2022/11/22 05:46:11;;;;;;;17.40;3.08;;;;;;;;;;7388697;19;20197;-73
2022/11/22 05:48:41;;;;;;;17.15;2.40;;;;;;;;;;7389113;19;20002;-73
2022/11/22 05:51:10;;;;;;;11.82;4.47;;;;;;;;;;7389656;19;20556;-73
2022/11/22 05:53:36;;;;;;;12.68;4.40;;;;;;;;;;7387069;19;20015;-73
2022/11/22 05:56:10;;;;;;;10.45;3.25;;;;;;;;;;7386302;19;20460;-74
2022/11/22 05:58:36;;;;;;;11.18;2.67;;;;;;;;;;7380180;19;20484;-73
2022/11/22 06:01:07;;;;;;;16.83;2.50;;;;;;;;;;7380514;19;20002;-73
2022/11/22 06:03:33;;;;;;;9.90;2.72;;;;;;;;;;7382709;19;19998;-73
2022/11/22 06:05:58;;;;;;;22.67;5.40;;;;;;;;;;7382438;19;19999;-73
2022/11/22 06:08:23;;;;;;;18.20;5.75;;;;;;;;;;7381603;19;19994;-74
2022/11/22 06:10:49;;;;;;;14.07;5.35;;;;;;;;;;7381086;19;20086;-73
2022/11/22 06:13:14;;;;;;;18.35;5.57;;;;;;;;;;7385002;19;20475;-73
2022/11/22 06:15:39;;;;;;;17.77;5.13;;;;;;;;;;7386750;19;20286;-74
2022/11/22 06:18:05;;;;;;;14.07;4.95;;;;;;;;;;7382835;19;20003;-73
2022/11/22 06:20:30;;;;;;;46.05;17.42;;;;;;;;;;7388871;19;20003;-73
2022/11/22 06:22:58;;;;;;;213.23;96.35;;;;;;;;;;7388262;19;19998;-73
2022/11/22 06:25:24;;;;;;;138.43;62.22;;;;;;;;;;7386620;19;20037;-73
2022/11/22 06:27:50;;;;;;;62.33;28.48;;;;;;;;;;7386391;19;20014;-73
2022/11/22 06:30:16;;;;;;;49.13;23.85;;;;;;;;;;7385261;19;20006;-73
2022/11/22 06:32:41;;;;;;;30.30;9.95;;;;;;;;;;7384537;19;20027;-73
2022/11/22 06:35:07;;;;;;;16.10;6.28;;;;;;;;;;7390041;19;19995;-73
2022/11/22 06:37:32;;;;;;;15.23;4.35;;;;;;;;;;7390732;19;20458;-73
2022/11/22 06:39:57;;;;;;;21.42;4.05;;;;;;;;;;7394192;19;20004;-73
2022/11/22 06:42:22;;;;;;;16.98;3.75;;;;;;;;;;7393815;19;20326;-73
2022/11/22 06:44:48;;;;;;;13.05;3.47;;;;;;;;;;7396434;19;20376;-74
2022/11/22 06:47:13;;;;;;;15.57;3.40;;;;;;;;;;7391891;19;20494;-74
2022/11/22 06:49:38;;;;;;;14.68;3.95;;;;;;;;;;7394413;19;20519;-73
2022/11/22 06:52:04;;;;;;;22.33;4.47;;;;;;;;;;7393724;19;19994;-74
2022/11/22 06:54:29;;;;;;;10.52;3.20;;;;;;;;;;7392381;19;20479;-74
2022/11/22 06:56:54;;;;;;;16.30;3.80;;;;;;;;;;7393318;19;20023;-74
2022/11/22 06:59:20;;;;;;;9.13;3.15;;;;;;;;;;7338936;19;20007;-73
2022/11/22 07:01:45;;;;;;;16.48;2.85;;;;;;;;;;7392590;19;20003;-72
2022/11/22 07:04:10;;;;;;;15.10;3.22;;;;;;;;;;7394099;19;19994;-73
2022/11/22 07:06:37;;;;;;;10.45;2.70;;;;;;;;;;7385383;19;20015;-73
2022/11/22 07:09:05;;;;;;;11.02;2.85;;;;;;;;;;7396204;19;20114;-73
2022/11/22 07:11:32;;;;;;;10.38;2.78;;;;;;;;;;7396236;19;19994;-73
2022/11/22 07:13:59;;;;;;;11.65;3.03;;;;;;;;;;7397044;19;19999;-73
2022/11/22 07:16:24;;;;;;;11.18;2.80;;;;;;;;;;7392569;19;20444;-72
2022/11/22 07:18:49;;;;;;;11.77;2.70;;;;;;;;;;7394392;19;20015;-73
2022/11/22 07:21:39;;;;;;;12.57;3.42;;;;;;;;;;7391275;19;20037;-73
2022/11/22 07:24:06;;;;;;;8.32;2.60;;;;;;;;;;7393228;19;20515;-73
2022/11/22 07:26:31;;;;;;;9.18;2.97;;;;;;;;;;7389080;19;19998;-73
2022/11/22 07:28:56;;;;;;;15.85;3.85;;;;;;;;;;7389590;19;20001;-73
2022/11/22 07:31:22;;;;;;;18.45;3.45;;;;;;;;;;7387097;19;20024;-73
2022/11/22 07:33:47;;;;;;;12.23;2.90;;;;;;;;;;7392516;19;20002;-73
2022/11/22 07:36:16;;;;;;;10.52;2.70;;;;;;;;;;7394548;19;19995;-74
2022/11/22 07:38:41;;;;;;;10.13;2.80;;;;;;;;;;7394385;19;20009;-73
2022/11/22 07:41:07;;;;;;;11.55;2.67;;;;;;;;;;7395239;19;20007;-73
2022/11/22 07:43:33;;;;;;;11.93;2.95;;;;;;;;;;7396213;19;20400;-73
2022/11/22 07:45:59;;;;;;;10.43;2.83;;;;;;;;;;7395770;19;20007;-73
2022/11/22 07:48:24;;;;;;;9.55;2.78;;;;;;;;;;7391455;19;20021;-73
2022/11/22 07:50:50;;;;;;;11.70;2.47;;;;;;;;;;7390125;19;19998;-73
2022/11/22 07:53:15;;;;;;;11.75;3.25;;;;;;;;;;7393894;19;20002;-73
2022/11/22 07:55:40;;;;;;;13.15;2.85;;;;;;;;;;7395354;19;20003;-73
2022/11/22 07:58:06;;;;;;;13.52;2.92;;;;;;;;;;7392522;19;20002;-73
2022/11/22 08:00:31;;;;;;;16.38;2.92;;;;;;;;;;7390853;19;19999;-73
2022/11/22 08:02:57;;;;;;;19.92;3.20;;;;;;;;;;7390902;19;20013;-73
2022/11/22 08:05:22;;;;;;;13.55;2.53;;;;;;;;;;7394051;19;20007;-73
2022/11/22 08:07:49;;;;;;;11.50;3.25;;;;;;;;;;7391806;19;20021;-73
2022/11/22 08:10:15;;;;;;;12.07;2.28;;;;;;;;;;7390659;19;19999;-73
2022/11/22 08:12:41;;;;;;;8.63;2.08;;;;;;;;;;7393063;19;20005;-73
2022/11/22 08:15:08;;;;;;;9.43;2.45;;;;;;;;;;7394225;19;20003;-72
2022/11/22 08:17:33;;;;;;;8.98;2.53;;;;;;;;;;7392881;19;20770;-73
2022/11/22 08:19:58;;;;;;;17.35;2.92;;;;;;;;;;7394016;19;20070;-73
2022/11/22 08:22:24;;;;;;;6.00;2.25;;;;;;;;;;7391454;19;20002;-73
2022/11/22 08:24:49;;;;;;;8.88;2.90;;;;;;;;;;7389811;19;20106;-73
2022/11/22 08:27:14;;;;;;;9.10;2.35;;;;;;;;;;7391786;19;20066;-73
2022/11/22 08:29:40;;;;;;;14.23;2.70;;;;;;;;;;7390895;19;20016;-73
2022/11/22 08:32:05;;;;;;;11.27;2.67;;;;;;;;;;7393874;19;20007;-73
2022/11/22 08:34:30;;;;;;;13.45;3.10;;;;;;;;;;7391839;19;20034;-73
2022/11/22 08:36:56;;;;;;;8.73;2.17;;;;;;;;;;7390796;19;20003;-73
2022/11/22 08:39:21;;;;;;;8.02;2.50;;;;;;;;;;7392790;19;20018;-73
2022/11/22 08:41:47;;;;;;;7.78;2.75;;;;;;;;;;7390776;19;20054;-73
2022/11/22 08:44:12;;;;;;;13.25;2.80;;;;;;;;;;7393387;19;20006;-73
2022/11/22 08:46:37;;;;;;;8.43;2.80;;;;;;;;;;7390516;19;20448;-73
2022/11/22 08:49:05;;;;;;;8.82;2.45;;;;;;;;;;7391552;19;20345;-73
2022/11/22 08:51:31;;;;;;;13.23;2.70;;;;;;;;;;7390730;19;19999;-73
2022/11/22 08:53:56;;;;;;;7.65;2.67;;;;;;;;;;7393915;19;20005;-73
2022/11/22 08:56:21;;;;;;;7.57;2.88;;;;;;;;;;7387731;19;19995;-73
2022/11/22 08:58:47;;;;;;;7.70;3.03;;;;;;;;;;7389632;19;20006;-73
2022/11/22 09:01:15;;;;;;;8.27;3.08;;;;;;;;;;7389857;19;20884;-73
2022/11/22 09:03:41;;;;;;;7.38;2.53;;;;;;;;;;7392093;19;20365;-73
2022/11/22 09:06:09;;;;;;;22.95;2.92;;;;;;;;;;7393062;19;20030;-73
2022/11/22 09:08:36;;;;;;;14.43;3.03;;;;;;;;;;7388789;19;20020;-73
2022/11/22 09:11:04;;;;;;;11.63;2.63;;;;;;;;;;7390036;19;20002;-73
2022/11/22 09:13:30;;;;;;;11.25;3.28;;;;;;;;;;7389424;19;20007;-75
2022/11/22 09:16:04;;;;;;;6.80;2.70;;;;;;;;;;7392162;19;20003;-73
2022/11/22 09:18:29;;;;;;;8.68;2.55;;;;;;;;;;7387251;19;20006;-73
2022/11/22 09:20:58;;;;;;;7.57;2.28;;;;;;;;;;7390971;19;20127;-72
2022/11/22 09:23:24;;;;;;;9.68;2.03;;;;;;;;;;7392483;19;20040;-71
2022/11/22 09:25:56;;;;;;;14.02;2.72;;;;;;;;;;7391832;19;20468;-72
2022/11/22 09:28:21;;;;;;;12.07;3.38;;;;;;;;;;7387373;19;20530;-72
2022/11/22 09:30:47;;;;;;;15.02;2.03;;;;;;;;;;7389127;19;20018;-71
2022/11/22 09:33:12;;;;;;;6.30;1.77;;;;;;;;;;7390797;19;20006;-71
2022/11/22 09:35:37;;;;;;;4.53;1.80;;;;;;;;;;7391735;19;20005;-72
2022/11/22 09:38:03;;;;;;;10.20;1.85;;;;;;;;;;7390526;19;20003;-72
2022/11/22 09:40:28;;;;;;;6.78;2.00;;;;;;;;;;7390246;19;20475;-72
2022/11/22 09:43:22;;;;;;;8.60;1.90;;;;;;;;;;7390798;19;20066;-73
2022/11/22 09:45:54;;;;;;;8.13;1.90;;;;;;;;;;7381771;19;20086;-71
2022/11/22 09:48:45;;;;;;;;;;;;;;;;;;7387305;19;20010;-71
2022/11/22 09:51:38;;;;;;;5.60;1.90;;;;;;;;;;7389119;19;19922;-71
2022/11/22 09:54:06;;;;;;;6.28;1.90;;;;;;;;;;7391785;19;19999;-71
2022/11/22 09:56:31;;;;;;;6.82;2.35;;;;;;;;;;7385998;19;20006;-72
2022/11/22 09:59:04;;;;;;;5.55;1.70;;;;;;;;;;7389384;19;20010;-72
2022/11/22 10:01:46;;;;;;;8.13;1.80;;;;;;;;;;7390582;19;20070;-72
2022/11/22 10:04:35;;;;;;;4.15;2.08;;;;;;;;;;7390924;19;20014;-72
2022/11/22 10:07:06;;;;;;;8.73;2.35;;;;;;;;;;7387482;19;20021;-72
2022/11/22 10:09:41;;;;;;;;;;;;;;;;;;7388943;19;20004;-72
2022/11/22 10:12:23;;;;;;;7.25;1.88;;;;;;;;;;7390545;19;19911;-72
2022/11/22 10:14:51;;;;;;;8.75;1.80;;;;;;;;;;7389980;19;20006;-72
2022/11/22 10:17:54;;;;;;;10.02;2.10;;;;;;;;;;7381303;19;20552;-72
2022/11/22 10:20:21;;;;;;;3.97;1.90;;;;;;;;;;7390067;19;20001;-72
2022/11/22 10:22:47;;;;;;;10.48;2.42;;;;;;;;;;7389511;19;20010;-71
2022/11/22 10:25:15;;;;;;;4.38;1.85;;;;;;;;;;7387785;19;19998;-73
2022/11/22 10:27:41;;;;;;;15.70;2.40;;;;;;;;;;7389085;19;20010;-73
2022/11/22 10:30:14;;;;;;;5.72;1.80;;;;;;;;;;7390392;19;20017;-72
2022/11/22 10:32:41;;;;;;;9.63;2.00;;;;;;;;;;7388170;19;20012;-72
2022/11/22 10:35:13;;;;;;;6.03;2.28;;;;;;;;;;7386749;19;20110;-72
2022/11/22 10:38:19;;;;;;;7.70;1.95;;;;;;;;;;7387094;19;20009;-73
2022/11/22 10:40:56;;;;;;;4.95;1.77;;;;;;;;;;7386741;19;20287;-72
2022/11/22 10:43:36;;;;;;;8.68;1.98;;;;;;;;;;7388059;19;20546;-73
2022/11/22 10:46:40;;;;;;;7.40;2.08;;;;;;;;;;7389647;19;20485;-72
2022/11/22 10:49:23;;;;;;;9.38;2.38;;;;;;;;;;7385289;19;20062;-73
2022/11/22 10:52:12;;;;;;;13.73;2.22;;;;;;;;;;7389536;19;20010;-73
2022/11/22 10:54:54;;;;;;;11.68;1.90;;;;;;;;;;7386962;19;20003;-73
2022/11/22 10:57:53;;;;;;;7.85;1.80;;;;;;;;;;7385456;19;20032;-74
2022/11/22 11:00:23;;;;;;;10.10;1.60;;;;;;;;;;7386709;19;20503;-73
2022/11/22 11:03:07;;;;;;;5.03;1.73;;;;;;;;;;7388809;19;20009;-73
2022/11/22 11:06:01;;;;;;;7.35;1.88;;;;;;;;;;7321497;19;20101;-72
2022/11/22 11:08:44;;;;;;;6.50;1.92;;;;;;;;;;7379725;19;19998;-73
2022/11/22 11:11:12;;;;;;;6.50;1.70;;;;;;;;;;7384634;19;19994;-73
2022/11/22 11:13:43;;;;;;;8.98;1.70;;;;;;;;;;7388272;19;20011;-73
2022/11/22 11:16:14;;;;;;;9.32;1.80;;;;;;;;;;7389008;19;20002;-73
2022/11/22 11:18:45;;;;;;;5.15;1.70;;;;;;;;;;7384159;19;20066;-73
2022/11/22 11:21:12;;;;;;;6.00;1.48;;;;;;;;;;7391501;19;19995;-73
2022/11/22 11:23:38;;;;;;;5.95;1.20;;;;;;;;;;7394797;19;20022;-73
2022/11/22 11:26:34;;;;;;;2.78;1.20;;;;;;;;;;7395114;19;20003;-73
2022/11/22 11:29:17;;;;;;;9.18;1.88;;;;;;;;;;7393586;19;20002;-73
2022/11/22 11:32:06;;;;;;;8.20;1.60;;;;;;;;;;7394204;19;20066;-73
2022/11/22 11:34:33;;;;;;;13.23;2.33;;;;;;;;;;7393508;19;20048;-73
2022/11/22 11:37:00;;;;;;;6.53;1.88;;;;;;;;;;7391223;19;20089;-73
2022/11/22 11:39:31;;;;;;;8.75;1.67;;;;;;;;;;7395894;19;20365;-73
2022/11/22 11:41:57;;;;;;;9.18;2.20;;;;;;;;;;7396278;19;20006;-73
2022/11/22 11:44:31;;;;;;;5.40;1.95;;;;;;;;;;7392396;19;19999;-73
2022/11/22 11:46:58;;;;;;;6.43;1.85;;;;;;;;;;7390148;19;20459;-73
2022/11/22 11:49:28;;;;;;;7.53;1.70;;;;;;;;;;7393780;19;19998;-75
2022/11/22 11:51:54;;;;;;;5.53;1.48;;;;;;;;;;7395901;19;20396;-75
2022/11/22 11:54:32;;;;;;;4.50;1.35;;;;;;;;;;7392849;19;20432;-75
2022/11/22 11:57:02;;;;;;;9.35;1.75;;;;;;;;;;7394014;19;20320;-75
2022/11/22 11:59:39;;;;;;;10.27;2.00;;;;;;;;;;7395898;19;19998;-75
2022/11/22 12:02:21;;;;;;;8.93;1.88;;;;;;;;;;7395559;19;20026;-74
2022/11/22 12:05:17;;;;;;;5.20;1.90;;;;;;;;;;7391752;19;20344;-74
2022/11/22 12:07:44;;;;;;;5.60;2.10;;;;;;;;;;7389995;19;19995;-74
2022/11/22 12:10:42;;;;;;;8.02;2.17;;;;;;;;;;7393974;19;19990;-74
2022/11/22 12:13:19;;;;;;;7.20;2.00;;;;;;;;;;7394349;19;20567;-73
2022/11/22 12:15:54;;;;;;;6.03;1.90;;;;;;;;;;7395008;19;20030;-74
2022/11/22 12:18:40;;;;;;;7.72;1.85;;;;;;;;;;7389178;19;20002;-75
2022/11/22 12:21:25;;;;;;;9.18;2.00;;;;;;;;;;7393462;19;20003;-74
2022/11/22 12:23:58;;;;;;;6.82;1.88;;;;;;;;;;7394165;19;19995;-74
2022/11/22 12:26:26;;;;;;;8.00;1.98;;;;;;;;;;7392451;19;20034;-72
2022/11/22 12:28:52;;;;;;;6.05;1.67;;;;;;;;;;7392816;19;20349;-74
2022/11/22 12:31:29;;;;;;;13.40;1.83;;;;;;;;;;7389842;19;19995;-76
2022/11/22 12:33:59;;;;;;;11.48;2.17;;;;;;;;;;7394128;19;20024;-74
2022/11/22 12:36:39;;;;;;;6.18;1.80;;;;;;;;;;7391503;19;20352;-74
2022/11/22 12:39:13;;;;;;;8.97;1.80;;;;;;;;;;7394191;19;20062;-74
2022/11/22 12:41:41;;;;;;;9.60;1.60;;;;;;;;;;7393475;19;20032;-74
2022/11/22 12:44:12;;;;;;;9.38;1.95;;;;;;;;;;7394330;19;20030;-74
2022/11/22 12:46:41;;;;;;;4.72;2.00;;;;;;;;;;7391602;19;20318;-75
2022/11/22 12:49:34;;;;;;;6.60;1.35;;;;;;;;;;7400873;19;20002;-76
2022/11/22 12:52:10;;;;;;;6.70;1.55;;;;;;;;;;7397183;19;20007;-74
2022/11/22 12:54:55;;;;;;;9.02;1.30;;;;;;;;;;7393521;19;20002;-74
2022/11/22 12:57:30;;;;;;;5.07;1.10;;;;;;;;;;7392297;19;20015;-74
2022/11/22 13:00:14;;;;;;;4.13;1.40;;;;;;;;;;7396287;19;20024;-74
2022/11/22 13:02:50;;;;;;;8.52;1.92;;;;;;;;;;7394034;19;19994;-73
2022/11/22 13:05:24;;;;;;;6.65;1.20;;;;;;;;;;7392201;19;20100;-74
2022/11/22 13:08:12;;;;;;;6.07;1.60;;;;;;;;;;7391520;19;20343;-74
2022/11/22 13:10:40;;;;;;;4.57;1.80;;;;;;;;;;7394566;19;20009;-75
2022/11/22 13:13:19;;;;;;;8.98;1.83;;;;;;;;;;7395278;19;20002;-74
2022/11/22 13:15:46;;;;;;;9.85;1.75;;;;;;;;;;7396189;19;20425;-74
2022/11/22 13:18:14;;;;;;;7.57;1.50;;;;;;;;;;7392251;19;19994;-74
2022/11/22 13:20:49;;;;;;;7.10;1.30;;;;;;;;;;7391675;19;20386;-74
2022/11/22 13:24:02;;;;;;;5.90;1.48;;;;;;;;;;7390073;19;20007;-74
2022/11/22 13:27:04;;;;;;;2.83;1.50;;;;;;;;;;7389000;19;20352;-73
2022/11/22 13:29:32;;;;;;;7.00;1.83;;;;;;;;;;7392098;19;20017;-74
2022/11/22 13:32:13;;;;;;;11.18;2.85;;;;;;;;;;7391753;19;20002;-74
2022/11/22 13:34:41;;;;;;;8.57;2.33;;;;;;;;;;7391164;19;20006;-72
2022/11/22 13:37:15;;;;;;;8.20;1.98;;;;;;;;;;7392897;19;20026;-71
2022/11/22 13:39:45;;;;;;;4.38;1.60;;;;;;;;;;7392628;19;19998;-72
2022/11/22 13:42:16;;;;;;;5.22;2.03;;;;;;;;;;7394048;19;20003;-72
2022/11/22 13:45:19;;;;;;;5.30;1.40;;;;;;;;;;7388163;19;20027;-72
2022/11/22 13:47:45;;;;;;;5.70;1.95;;;;;;;;;;7390731;19;20033;-74
2022/11/22 13:50:52;;;;;;;6.90;2.00;;;;;;;;;;7392054;19;20003;-74
2022/11/22 13:53:18;;;;;;;5.65;1.75;;;;;;;;;;7390730;19;19998;-74
2022/11/22 13:55:43;;;;;;;7.03;1.83;;;;;;;;;;7392208;19;20032;-74
2022/11/22 13:58:24;;;;;;;4.25;1.55;;;;;;;;;;7391163;19;19998;-74
2022/11/22 14:00:58;;;;;;;6.70;1.80;;;;;;;;;;7391600;19;20655;-73
2022/11/22 14:03:39;;;;;;;6.85;1.58;;;;;;;;;;7391394;19;20512;-73
2022/11/22 14:06:34;;;;;;;9.48;2.50;;;;;;;;;;7391448;19;20002;-73
2022/11/22 14:09:35;;;;;;;8.57;2.03;;;;;;;;;;7388334;19;20499;-72
2022/11/22 14:12:09;;;;;;;4.20;1.65;;;;;;;;;;7391590;19;20017;-72
2022/11/22 14:15:02;;;;;;;6.47;1.75;;;;;;;;;;7388397;19;20027;-73
2022/11/22 14:17:42;;;;;;;6.57;1.83;;;;;;;;;;7387036;19;20031;-73
2022/11/22 14:20:47;;;;;;;3.45;1.48;;;;;;;;;;7391754;19;20110;-75
2022/11/22 14:23:32;;;;;;;7.68;2.10;;;;;;;;;;7389023;19;19998;-74
2022/11/22 14:26:07;;;;;;;4.85;1.85;;;;;;;;;;7390147;19;20007;-72
2022/11/22 14:28:58;;;;;;;8.95;1.60;;;;;;;;;;7384814;19;20005;-75
2022/11/22 14:31:27;;;;;;;5.70;1.90;;;;;;;;;;7388147;19;20010;-72
2022/11/22 14:34:14;;;;;;;5.18;1.77;;;;;;;;;;7390241;19;20006;-72
2022/11/22 14:36:40;;;;;;;5.65;1.80;;;;;;;;;;7385125;19;20007;-73
2022/11/22 14:39:43;;;;;;;5.63;1.83;;;;;;;;;;7388006;19;20286;-72
2022/11/22 14:42:40;;;;;;;4.28;1.90;;;;;;;;;;7391092;19;20006;-72
2022/11/22 14:45:05;;;;;;;4.55;1.60;;;;;;;;;;7389143;19;20426;-72
2022/11/22 14:47:33;;;;;;;6.40;1.25;;;;;;;;;;7384425;19;20007;-73
2022/11/22 14:50:01;;;;;;;5.00;1.33;;;;;;;;;;7388987;19;20346;-73
2022/11/22 14:52:30;;;;;;;7.05;1.98;;;;;;;;;;7387540;19;20027;-74
2022/11/22 14:55:01;;;;;;;6.85;1.80;;;;;;;;;;7389735;19;20002;-73
2022/11/22 14:57:29;;;;;;;6.35;1.75;;;;;;;;;;7395105;19;20003;-74
2022/11/22 15:00:14;;;;;;;5.65;1.90;;;;;;;;;;7396278;19;20856;-73
2022/11/22 15:03:00;;;;;;;4.50;1.55;;;;;;;;;;7396016;19;20002;-74
2022/11/22 15:05:48;;;;;;;1.92;1.20;;;;;;;;;;7393803;19;19995;-74